createdAt,value
2022-10-29T00:00:30.383Z,17.80
2022-10-29T00:02:56.943Z,17.80
2022-10-29T00:05:24.501Z,17.60
2022-10-29T00:07:50.985Z,17.60
2022-10-29T00:10:17.473Z,17.60
2022-10-29T00:12:43.933Z,17.70
2022-10-29T00:15:10.802Z,17.80
2022-10-29T00:17:37.310Z,18.10
2022-10-29T00:20:04.230Z,18.10
2022-10-29T00:22:30.772Z,18.00
2022-10-29T00:24:57.387Z,18.10
2022-10-29T00:27:23.893Z,18.30
2022-10-29T00:29:50.594Z,18.70
2022-10-29T00:32:17.116Z,18.70
2022-10-29T00:34:43.846Z,18.50
2022-10-29T00:37:10.320Z,18.50
2022-10-29T00:39:36.799Z,18.40
2022-10-29T00:42:04.727Z,18.50
2022-10-29T00:44:35.464Z,18.10
2022-10-29T00:47:17.869Z,18.10
2022-10-29T00:49:47.474Z,18.40
2022-10-29T00:52:15.228Z,18.80
2022-10-29T00:54:43.439Z,19.00
2022-10-29T00:57:13.146Z,19.00
2022-10-29T00:59:40.637Z,19.10
2022-10-29T01:02:08.329Z,18.70
2022-10-29T01:04:35.239Z,18.70
2022-10-29T01:07:02.057Z,19.00
2022-10-29T01:09:28.503Z,18.90
2022-10-29T01:12:11.631Z,18.70
2022-10-29T01:15:07.996Z,18.20
2022-10-29T01:18:03.501Z,17.80
2022-10-29T01:20:53.129Z,18.10
2022-10-29T01:23:22.508Z,18.20
2022-10-29T01:25:58.395Z,18.00
2022-10-29T01:28:41.981Z,18.10
2022-10-29T01:31:25.389Z,18.30
2022-10-29T01:34:33.171Z,18.20
2022-10-29T01:37:37.438Z,18.30
2022-10-29T01:40:12.515Z,18.30
2022-10-29T01:42:41.037Z,18.20
2022-10-29T01:45:17.076Z,17.70
2022-10-29T01:48:07.364Z,17.40
2022-10-29T01:50:34.250Z,17.60
2022-10-29T01:53:00.982Z,18.20
2022-10-29T01:55:35.276Z,18.30
2022-10-29T01:58:03.714Z,18.50
2022-10-29T02:01:09.009Z,18.50
2022-10-29T02:03:58.990Z,18.30
2022-10-29T02:06:40.384Z,18.20
2022-10-29T02:09:16.589Z,18.40
2022-10-29T02:11:48.343Z,18.50
2022-10-29T02:14:24.302Z,18.50
2022-10-29T02:16:51.555Z,18.50
2022-10-29T02:19:18.234Z,18.30
2022-10-29T02:21:45.132Z,18.20
2022-10-29T02:24:11.955Z,17.70
2022-10-29T02:26:38.439Z,17.70
2022-10-29T02:29:04.937Z,18.10
2022-10-29T02:31:31.421Z,17.90
2022-10-29T02:33:57.898Z,17.70
2022-10-29T02:36:24.410Z,17.80
2022-10-29T02:38:51.977Z,17.80
2022-10-29T02:41:18.425Z,17.60
2022-10-29T02:43:45.084Z,17.70
2022-10-29T02:46:16.130Z,17.50
2022-10-29T02:48:43.054Z,17.60
2022-10-29T02:51:09.867Z,17.60
2022-10-29T02:53:36.822Z,17.90
2022-10-29T02:56:04.345Z,17.90
2022-10-29T02:58:30.842Z,18.00
2022-10-29T03:00:57.368Z,17.80
2022-10-29T03:03:24.573Z,17.80
2022-10-29T03:05:51.386Z,17.80
2022-10-29T03:08:18.453Z,17.70
2022-10-29T03:10:44.968Z,17.40
2022-10-29T03:13:11.961Z,17.00
2022-10-29T03:15:38.571Z,17.00
2022-10-29T03:18:05.294Z,17.00
2022-10-29T03:20:31.774Z,17.00
2022-10-29T03:22:58.280Z,17.20
2022-10-29T03:25:24.748Z,17.10
2022-10-29T03:27:52.248Z,17.00
2022-10-29T03:30:18.929Z,17.00
2022-10-29T03:32:46.872Z,16.90
2022-10-29T03:35:14.986Z,16.90
2022-10-29T03:37:41.931Z,17.00
2022-10-29T03:40:09.060Z,16.80
2022-10-29T03:42:35.624Z,17.10
2022-10-29T03:45:02.368Z,17.40
2022-10-29T03:47:28.985Z,17.30
2022-10-29T03:49:55.752Z,17.00
2022-10-29T03:52:22.285Z,16.90
2022-10-29T03:54:48.838Z,17.00
2022-10-29T03:57:15.345Z,16.90
2022-10-29T03:59:51.537Z,16.50
2022-10-29T04:02:19.357Z,17.10
2022-10-29T04:04:46.005Z,17.30
2022-10-29T04:07:12.639Z,17.30
2022-10-29T04:09:39.180Z,17.20
2022-10-29T04:12:06.130Z,17.10
2022-10-29T04:14:32.882Z,16.90
2022-10-29T04:16:59.431Z,16.90
2022-10-29T04:19:25.937Z,17.20
2022-10-29T04:32:45.273Z,16.90
2022-10-29T04:35:11.765Z,16.90
2022-10-29T04:37:38.278Z,17.00
2022-10-29T04:40:05.469Z,16.70
2022-10-29T04:42:38.995Z,16.80
2022-10-29T04:45:06.780Z,17.00
2022-10-29T04:47:33.624Z,16.80
2022-10-29T04:50:00.059Z,16.80
2022-10-29T04:52:26.958Z,16.90
2022-10-29T04:54:53.392Z,17.00
2022-10-29T04:57:19.863Z,16.90
2022-10-29T04:59:46.316Z,16.80
2022-10-29T05:02:12.977Z,17.00
2022-10-29T05:04:39.471Z,17.30
2022-10-29T05:07:06.062Z,17.30
2022-10-29T05:09:32.601Z,16.70
2022-10-29T05:11:59.172Z,16.30
2022-10-29T05:14:25.657Z,16.40
2022-10-29T05:16:52.163Z,16.30
2022-10-29T05:19:18.763Z,16.20
2022-10-29T05:21:45.282Z,16.30
2022-10-29T05:24:11.757Z,16.10
2022-10-29T05:26:38.383Z,16.30
2022-10-29T05:29:05.225Z,16.60
2022-10-29T05:31:31.964Z,16.50
2022-10-29T05:33:58.743Z,16.40
2022-10-29T05:36:25.228Z,16.20
2022-10-29T05:38:51.840Z,15.90
2022-10-29T05:41:18.416Z,15.80
2022-10-29T05:43:48.519Z,15.80
2022-10-29T05:46:14.975Z,15.70
2022-10-29T05:48:41.597Z,15.60
2022-10-29T05:51:08.053Z,15.40
2022-10-29T05:53:34.678Z,15.40
2022-10-29T05:56:01.207Z,15.20
2022-10-29T05:58:27.667Z,15.20
2022-10-29T06:00:54.281Z,15.10
2022-10-29T06:03:22.482Z,15.00
2022-10-29T06:05:50.211Z,15.00
2022-10-29T06:08:17.178Z,15.00
2022-10-29T06:10:43.692Z,14.90
2022-10-29T06:13:12.030Z,14.90
2022-10-29T06:15:38.524Z,15.50
2022-10-29T06:18:05.117Z,15.60
2022-10-29T06:20:32.012Z,15.50
2022-10-29T06:22:59.360Z,15.60
2022-10-29T06:25:26.991Z,15.90
2022-10-29T06:28:18.292Z,16.40
2022-10-29T06:30:51.846Z,16.50
2022-10-29T06:33:23.062Z,16.60
2022-10-29T06:35:53.327Z,16.80
2022-10-29T06:38:20.303Z,16.70
2022-10-29T06:40:53.664Z,17.00
2022-10-29T06:43:29.837Z,16.50
2022-10-29T06:45:57.176Z,15.90
2022-10-29T06:48:24.879Z,15.70
2022-10-29T06:50:52.603Z,15.70
2022-10-29T06:53:20.474Z,15.90
2022-10-29T06:56:03.087Z,15.80
2022-10-29T06:58:29.629Z,16.30
2022-10-29T07:03:28.308Z,16.90
2022-10-29T07:05:56.466Z,16.40
2022-10-29T07:08:23.216Z,16.00
2022-10-29T07:10:54.635Z,16.10
2022-10-29T07:13:21.495Z,16.30
2022-10-29T07:15:48.203Z,16.10
2022-10-29T07:18:16.400Z,16.40
2022-10-29T07:20:45.406Z,16.40
2022-10-29T07:23:14.774Z,16.20
2022-10-29T07:25:42.519Z,16.20
2022-10-29T07:28:19.029Z,16.10
2022-10-29T07:30:50.369Z,16.10
2022-10-29T07:33:17.787Z,16.20
2022-10-29T07:35:45.465Z,16.60
2022-10-29T07:38:12.781Z,16.90
2022-10-29T07:40:40.546Z,17.10
2022-10-29T07:43:07.509Z,17.60
2022-10-29T07:45:34.124Z,18.00
2022-10-29T07:48:07.248Z,18.30
2022-10-29T07:50:33.928Z,18.50
2022-10-29T07:53:01.205Z,18.30
2022-10-29T07:55:31.004Z,18.60
2022-10-29T07:58:02.390Z,18.70
2022-10-29T08:00:30.288Z,18.20
2022-10-29T08:02:57.528Z,18.00
2022-10-29T08:05:25.277Z,18.40
2022-10-29T08:07:55.457Z,17.80
2022-10-29T08:10:23.299Z,18.00
2022-10-29T08:13:02.200Z,18.30
2022-10-29T08:15:30.823Z,18.40
2022-10-29T08:17:57.629Z,19.10
2022-10-29T08:20:26.292Z,19.20
2022-10-29T08:22:59.313Z,19.50
2022-10-29T08:25:26.353Z,19.60
2022-10-29T08:28:00.859Z,20.00
2022-10-29T08:30:27.855Z,20.00
2022-10-29T08:32:54.788Z,20.30
2022-10-29T08:35:21.468Z,20.00
2022-10-29T08:37:48.254Z,20.30
2022-10-29T08:40:25.715Z,20.10
2022-10-29T08:43:08.760Z,20.30
2022-10-29T08:45:48.027Z,20.30
2022-10-29T08:48:33.661Z,20.40
2022-10-29T08:51:13.421Z,20.30
2022-10-29T08:53:54.368Z,20.70
2022-10-29T08:56:35.139Z,20.70
2022-10-29T08:59:18.229Z,20.90
2022-10-29T09:01:45.130Z,21.00
2022-10-29T09:04:35.321Z,20.80
2022-10-29T09:07:14.388Z,20.30
2022-10-29T09:10:02.105Z,20.00
2022-10-29T09:12:39.626Z,19.90
2022-10-29T09:15:25.852Z,20.40
2022-10-29T09:18:13.174Z,20.60
2022-10-29T09:20:45.769Z,20.70
2022-10-29T09:23:42.756Z,20.90
2022-10-29T09:26:22.846Z,21.20
2022-10-29T09:29:34.405Z,21.10
2022-10-29T09:32:03.635Z,21.30
2022-10-29T09:34:49.524Z,21.50
2022-10-29T09:37:49.154Z,21.90
2022-10-29T09:40:17.818Z,22.40
2022-10-29T09:42:46.946Z,22.10
2022-10-29T09:45:16.385Z,22.30
2022-10-29T09:47:45.711Z,21.90
2022-10-29T09:50:36.074Z,22.20
2022-10-29T09:53:02.614Z,22.50
2022-10-29T09:55:40.242Z,22.40
2022-10-29T09:58:07.277Z,21.90
2022-10-29T10:00:34.963Z,21.80
2022-10-29T10:03:10.213Z,22.10
2022-10-29T10:05:56.605Z,22.00
2022-10-29T10:08:23.111Z,22.30
2022-10-29T10:10:52.396Z,21.90
2022-10-29T10:13:26.980Z,21.60
2022-10-29T10:15:56.566Z,21.60
2022-10-29T10:18:39.193Z,21.80
2022-10-29T10:21:14.073Z,21.70
2022-10-29T10:23:47.638Z,21.10
2022-10-29T10:26:26.434Z,20.80
2022-10-29T10:29:13.077Z,20.60
2022-10-29T10:31:40.936Z,20.90
2022-10-29T10:34:16.780Z,20.60
2022-10-29T10:36:46.143Z,21.00
2022-10-29T10:39:39.705Z,21.90
2022-10-29T10:42:16.288Z,22.40
2022-10-29T10:45:00.234Z,22.70
2022-10-29T10:47:29.496Z,22.40
2022-10-29T10:50:15.825Z,21.90
2022-10-29T10:52:42.455Z,21.70
2022-10-29T10:55:24.168Z,22.00
2022-10-29T10:58:22.660Z,22.40
2022-10-29T11:01:02.781Z,23.00
2022-10-29T11:03:34.053Z,22.70
2022-10-29T11:06:22.382Z,22.80
2022-10-29T11:09:19.963Z,23.90
2022-10-29T11:11:49.574Z,24.10
2022-10-29T11:14:26.654Z,23.90
2022-10-29T11:16:56.043Z,23.40
2022-10-29T11:19:48.084Z,24.20
2022-10-29T11:22:45.330Z,24.30
2022-10-29T11:25:21.659Z,24.80
2022-10-29T11:28:06.880Z,25.20
2022-10-29T11:30:39.058Z,25.00
2022-10-29T11:33:16.796Z,24.90
2022-10-29T11:35:56.065Z,24.90
2022-10-29T11:38:33.389Z,24.50
2022-10-29T11:41:07.222Z,24.40
2022-10-29T11:43:33.806Z,24.90
2022-10-29T11:46:25.074Z,25.00
2022-10-29T11:48:54.766Z,25.30
2022-10-29T11:51:46.140Z,25.40
2022-10-29T11:54:40.284Z,24.90
2022-10-29T11:57:16.645Z,24.70
2022-10-29T12:00:07.907Z,24.30
2022-10-29T12:03:18.184Z,24.10
2022-10-29T12:06:04.574Z,24.20
2022-10-29T12:08:59.262Z,25.10
2022-10-29T12:11:50.485Z,25.50
2022-10-29T12:14:33.243Z,25.20
2022-10-29T12:17:09.185Z,24.70
2022-10-29T12:19:54.644Z,24.20
2022-10-29T12:22:45.360Z,23.80
2022-10-29T12:25:27.079Z,23.60
2022-10-29T12:28:08.091Z,24.20
2022-10-29T12:30:39.814Z,24.70
2022-10-29T12:33:15.167Z,23.80
2022-10-29T12:35:49.512Z,23.30
2022-10-29T12:38:39.196Z,23.30
2022-10-29T12:41:10.022Z,24.00
2022-10-29T12:43:39.033Z,24.60
2022-10-29T12:46:20.042Z,24.70
2022-10-29T12:48:53.253Z,24.70
2022-10-29T12:51:41.902Z,24.40
2022-10-29T12:54:18.986Z,23.40
2022-10-29T12:56:47.913Z,23.00
2022-10-29T12:59:32.091Z,22.40
2022-10-29T13:02:17.356Z,22.90
2022-10-29T13:05:11.584Z,22.90
2022-10-29T13:07:46.948Z,22.90
2022-10-29T13:10:22.714Z,23.30
2022-10-29T13:12:55.335Z,23.30
2022-10-29T13:15:23.154Z,23.30
2022-10-29T13:17:51.574Z,23.20
2022-10-29T13:20:25.282Z,23.00
2022-10-29T13:22:55.083Z,22.90
2022-10-29T13:25:37.121Z,22.50
2022-10-29T13:28:12.701Z,22.80
2022-10-29T13:30:41.013Z,23.30
2022-10-29T13:33:26.296Z,24.30
2022-10-29T13:35:56.701Z,24.60
2022-10-29T13:39:07.492Z,25.10
2022-10-29T13:41:43.388Z,25.40
2022-10-29T13:44:23.162Z,25.50
2022-10-29T13:47:00.992Z,25.50
2022-10-29T13:49:44.893Z,24.10
2022-10-29T13:52:15.617Z,23.50
2022-10-29T13:54:47.179Z,22.80
2022-10-29T13:57:15.605Z,22.80
2022-10-29T13:59:46.791Z,22.50
2022-10-29T14:02:30.555Z,22.10
2022-10-29T14:05:13.121Z,21.80
2022-10-29T14:08:13.727Z,22.30
2022-10-29T14:10:40.257Z,22.30
2022-10-29T14:13:26.245Z,22.30
2022-10-29T14:16:00.431Z,22.50
2022-10-29T14:18:27.787Z,22.30
2022-10-29T14:20:59.393Z,22.00
2022-10-29T14:23:26.679Z,21.80
2022-10-29T14:25:56.173Z,22.00
2022-10-29T14:28:32.319Z,21.60
2022-10-29T14:31:06.594Z,21.60
2022-10-29T14:33:35.530Z,21.40
2022-10-29T14:36:08.208Z,21.10
2022-10-29T14:38:44.873Z,21.10
2022-10-29T14:41:11.790Z,21.10
2022-10-29T14:43:39.112Z,21.10
2022-10-29T14:46:17.112Z,21.20
2022-10-29T14:48:54.933Z,21.00
2022-10-29T14:51:22.261Z,20.90
2022-10-29T14:53:54.545Z,20.90
2022-10-29T14:56:22.335Z,21.00
2022-10-29T14:58:48.859Z,21.00
2022-10-29T15:01:20.308Z,21.00
2022-10-29T15:03:47.818Z,21.00
2022-10-29T15:06:17.350Z,21.00
2022-10-29T15:08:46.000Z,20.90
2022-10-29T15:11:37.295Z,20.90
2022-10-29T15:14:20.979Z,20.80
2022-10-29T15:16:47.605Z,20.60
2022-10-29T15:19:15.055Z,20.50
2022-10-29T15:21:41.818Z,20.40
2022-10-29T15:24:10.366Z,20.60
2022-10-29T15:26:44.909Z,20.50
2022-10-29T15:29:11.982Z,20.40
2022-10-29T15:31:46.047Z,20.30
2022-10-29T15:34:18.896Z,20.20
2022-10-29T15:36:52.849Z,20.60
2022-10-29T15:39:27.969Z,20.40
2022-10-29T15:41:59.567Z,20.30
2022-10-29T15:44:37.957Z,20.60
2022-10-29T15:47:26.596Z,21.10
2022-10-29T15:49:53.067Z,21.10
2022-10-29T15:52:20.470Z,20.70
2022-10-29T15:54:47.650Z,20.60
2022-10-29T15:57:17.705Z,20.80
2022-10-29T15:59:44.227Z,21.40
2022-10-29T16:02:17.264Z,21.60
2022-10-29T16:04:43.797Z,21.00
2022-10-29T16:07:13.611Z,20.70
2022-10-29T16:09:45.470Z,20.80
2022-10-29T16:12:12.007Z,21.00
2022-10-29T16:14:38.486Z,21.10
2022-10-29T16:17:12.379Z,21.40
2022-10-29T16:19:38.886Z,21.70
2022-10-29T16:22:05.527Z,22.00
2022-10-29T16:24:33.951Z,22.00
2022-10-29T16:27:00.473Z,22.00
2022-10-29T16:29:27.060Z,22.00
2022-10-29T16:31:53.577Z,21.70
2022-10-29T16:34:23.730Z,21.40
2022-10-29T16:36:51.350Z,20.70
2022-10-29T16:39:17.854Z,20.20
2022-10-29T16:41:44.366Z,20.00
2022-10-29T16:44:10.874Z,20.10
2022-10-29T16:46:37.367Z,20.60
2022-10-29T16:49:03.874Z,21.10
2022-10-29T16:51:30.430Z,21.50
2022-10-29T16:53:56.926Z,21.50
2022-10-29T16:56:23.400Z,21.60
2022-10-29T16:58:49.891Z,21.80
2022-10-29T17:01:17.016Z,21.80
2022-10-29T17:03:43.874Z,21.60
2022-10-29T17:06:10.884Z,21.70
2022-10-29T17:08:37.959Z,21.80
2022-10-29T17:11:06.590Z,21.80
2022-10-29T17:13:34.004Z,21.80
2022-10-29T17:16:00.460Z,21.50
2022-10-29T17:18:26.994Z,21.60
2022-10-29T17:20:58.229Z,21.70
2022-10-29T17:23:28.762Z,21.50
2022-10-29T17:25:57.259Z,21.60
2022-10-29T17:28:24.954Z,21.70
2022-10-29T17:30:51.535Z,21.60
2022-10-29T17:33:18.724Z,21.70
2022-10-29T17:35:46.711Z,21.40
2022-10-29T17:38:13.224Z,20.40
2022-10-29T17:40:39.733Z,19.80
2022-10-29T17:43:06.425Z,20.20
2022-10-29T17:45:32.939Z,20.70
2022-10-29T17:48:00.023Z,21.00
2022-10-29T17:50:27.181Z,21.10
2022-10-29T17:52:54.168Z,21.10
2022-10-29T17:55:20.824Z,21.20
2022-10-29T17:57:47.643Z,20.70
2022-10-29T18:00:14.520Z,20.10
2022-10-29T18:02:41.175Z,20.80
2022-10-29T18:05:08.085Z,21.00
2022-10-29T18:07:34.694Z,21.20
2022-10-29T18:10:01.283Z,21.20
2022-10-29T18:12:27.791Z,21.30
2022-10-29T18:14:54.264Z,21.20
2022-10-29T18:17:20.799Z,21.10
2022-10-29T18:19:47.752Z,21.10
2022-10-29T18:22:14.369Z,21.00
2022-10-29T18:24:40.927Z,20.90
2022-10-29T18:27:07.443Z,20.90
2022-10-29T18:29:33.950Z,20.80
2022-10-29T18:32:00.699Z,20.90
2022-10-29T18:34:27.157Z,21.00
2022-10-29T18:36:53.638Z,20.50
2022-10-29T18:39:20.334Z,20.00
2022-10-29T18:41:46.782Z,20.00
2022-10-29T18:44:13.249Z,20.40
2022-10-29T18:46:39.791Z,20.60
2022-10-29T18:49:06.394Z,20.50
2022-10-29T18:51:33.016Z,20.20
2022-10-29T18:54:00.338Z,20.40
2022-10-29T18:56:27.960Z,20.50
2022-10-29T18:58:57.818Z,20.50
2022-10-29T19:01:33.104Z,20.20
2022-10-29T19:04:02.036Z,20.20
2022-10-29T19:06:30.826Z,20.10
2022-10-29T19:09:00.011Z,20.30
2022-10-29T19:11:27.201Z,20.30
2022-10-29T19:14:01.748Z,20.20
2022-10-29T19:16:29.535Z,20.30
2022-10-29T19:19:00.169Z,20.20
2022-10-29T19:21:27.148Z,20.10
2022-10-29T19:23:58.037Z,20.10
2022-10-29T19:26:26.394Z,20.10
2022-10-29T19:28:53.629Z,20.00
2022-10-29T19:31:22.612Z,20.10
2022-10-29T19:33:50.388Z,20.00
2022-10-29T19:36:19.283Z,19.60
2022-10-29T19:38:47.068Z,19.70
2022-10-29T19:41:14.928Z,19.90
2022-10-29T19:43:41.731Z,19.90
2022-10-29T19:46:24.545Z,19.80
2022-10-29T19:48:55.591Z,19.90
2022-10-29T19:51:23.170Z,19.70
2022-10-29T19:53:53.386Z,19.40
2022-10-29T19:56:20.607Z,19.60
2022-10-29T19:58:50.060Z,19.70
2022-10-29T20:01:18.286Z,19.80
2022-10-29T20:03:45.669Z,19.60
2022-10-29T20:06:12.647Z,19.60
2022-10-29T20:08:39.362Z,19.50
2022-10-29T20:11:06.222Z,19.20
2022-10-29T20:13:32.771Z,18.60
2022-10-29T20:16:24.605Z,18.90
2022-10-29T20:18:52.040Z,18.90
2022-10-29T20:21:18.794Z,18.40
2022-10-29T20:23:45.437Z,18.80
2022-10-29T20:26:12.071Z,19.10
2022-10-29T20:28:39.351Z,19.30
2022-10-29T20:31:30.161Z,19.30
2022-10-29T20:34:10.614Z,18.90
2022-10-29T20:36:44.689Z,18.70
2022-10-29T20:39:20.918Z,18.70
2022-10-29T20:41:56.195Z,18.70
2022-10-29T20:44:58.153Z,18.60
2022-10-29T20:47:23.156Z,18.70
2022-10-29T20:49:50.449Z,19.00
2022-10-29T20:52:17.001Z,19.20
2022-10-29T20:54:43.624Z,19.20
2022-10-29T20:57:12.319Z,18.90
2022-10-29T20:59:39.197Z,19.00
2022-10-29T21:02:06.293Z,19.20
2022-10-29T21:04:34.245Z,19.20
2022-10-29T21:07:01.837Z,19.10
2022-10-29T21:09:29.088Z,19.10
2022-10-29T21:11:55.904Z,19.10
2022-10-29T21:14:23.465Z,19.20
2022-10-29T21:16:51.053Z,19.10
2022-10-29T21:19:18.152Z,19.10
2022-10-29T21:21:44.647Z,18.90
2022-10-29T21:24:11.232Z,19.00
2022-10-29T21:26:37.808Z,19.00
2022-10-29T21:29:04.350Z,18.90
2022-10-29T21:31:30.880Z,19.00
2022-10-29T21:33:57.864Z,19.00
2022-10-29T21:36:24.802Z,19.10
2022-10-29T21:38:52.086Z,19.10
2022-10-29T21:41:19.261Z,19.10
2022-10-29T21:43:54.752Z,19.10
2022-10-29T21:46:21.322Z,19.00
2022-10-29T21:48:47.762Z,19.00
2022-10-29T21:51:15.122Z,19.10
2022-10-29T21:53:41.662Z,19.10
2022-10-29T21:56:10.562Z,18.90
2022-10-29T21:58:37.100Z,18.80
2022-10-29T22:01:06.796Z,18.90
2022-10-29T22:03:34.309Z,18.90
2022-10-29T22:06:05.422Z,18.80
2022-10-29T22:08:32.297Z,18.80
2022-10-29T22:10:59.382Z,18.80
2022-10-29T22:13:28.150Z,18.90
2022-10-29T22:15:54.635Z,18.80
2022-10-29T22:18:21.407Z,18.70
2022-10-29T22:20:48.021Z,18.80
2022-10-29T22:25:50.872Z,19.00
2022-10-29T22:28:17.385Z,19.00
2022-10-29T22:30:43.957Z,18.90
2022-10-29T22:33:10.412Z,18.90
2022-10-29T22:35:36.848Z,18.90
2022-10-29T22:38:03.299Z,18.90
2022-10-29T22:40:29.767Z,18.80
2022-10-29T22:42:56.409Z,18.90
2022-10-29T22:45:23.128Z,18.90
2022-10-29T22:47:49.549Z,18.60
2022-10-29T22:50:16.104Z,18.60
2022-10-29T22:52:42.564Z,18.50
2022-10-29T22:55:09.376Z,18.90
2022-10-29T22:57:35.808Z,18.90
2022-10-29T23:00:02.284Z,18.80
2022-10-29T23:02:28.825Z,18.60
2022-10-29T23:04:55.308Z,18.60
2022-10-29T23:07:21.769Z,18.40
2022-10-29T23:09:55.488Z,18.30
2022-10-29T23:12:24.428Z,18.20
2022-10-29T23:14:52.262Z,18.50
2022-10-29T23:17:22.633Z,18.60
2022-10-29T23:19:56.903Z,18.50
2022-10-29T23:22:27.430Z,18.50
2022-10-29T23:24:55.551Z,18.30
2022-10-29T23:27:26.018Z,18.30
2022-10-29T23:29:59.770Z,18.00
2022-10-29T23:32:29.048Z,18.10
2022-10-29T23:34:57.882Z,18.40
2022-10-29T23:37:25.817Z,18.40
2022-10-29T23:39:53.229Z,18.40
2022-10-29T23:42:20.862Z,18.30
2022-10-29T23:44:48.046Z,18.10
2022-10-29T23:47:15.251Z,18.30
2022-10-29T23:49:42.682Z,18.40
2022-10-29T23:52:12.120Z,18.50
2022-10-29T23:54:39.644Z,18.50
2022-10-29T23:57:06.452Z,18.40
2022-10-29T23:59:33.554Z,18.20
